createdAt,value
2018-07-30T00:00:34.938Z,90.40
2018-07-30T00:03:03.490Z,90.70
2018-07-30T00:05:32.014Z,91.10
2018-07-30T00:08:00.505Z,91.70
2018-07-30T00:10:28.990Z,91.90
2018-07-30T00:12:57.497Z,92.20
2018-07-30T00:15:26.017Z,92.40
2018-07-30T00:17:54.569Z,92.60
2018-07-30T00:20:23.061Z,92.70
2018-07-30T00:22:51.590Z,93.00
2018-07-30T00:25:20.081Z,93.20
2018-07-30T00:27:48.566Z,93.30
2018-07-30T00:30:17.064Z,93.40
2018-07-30T00:32:45.633Z,93.70
2018-07-30T00:35:14.122Z,93.80
2018-07-30T00:37:42.925Z,94.10
2018-07-30T00:40:14.364Z,94.40
2018-07-30T00:42:44.413Z,94.60
2018-07-30T00:45:13.468Z,94.70
2018-07-30T00:47:42.314Z,94.80
2018-07-30T00:50:11.110Z,94.90
2018-07-30T00:52:39.977Z,95.20
2018-07-30T00:55:08.755Z,95.20
2018-07-30T00:57:37.969Z,95.40
2018-07-30T01:00:08.043Z,95.20
2018-07-30T01:02:36.850Z,95.20
2018-07-30T01:05:06.081Z,95.40
2018-07-30T01:07:34.973Z,95.40
2018-07-30T01:10:03.820Z,95.30
2018-07-30T01:12:32.709Z,95.00
2018-07-30T01:15:01.414Z,95.00
2018-07-30T01:17:30.078Z,95.00
2018-07-30T01:19:58.863Z,95.10
2018-07-30T01:22:27.852Z,95.50
2018-07-30T01:24:56.784Z,95.40
2018-07-30T01:27:25.280Z,95.30
2018-07-30T01:29:53.775Z,95.40
2018-07-30T01:32:22.281Z,95.70
2018-07-30T01:34:50.778Z,95.60
2018-07-30T01:37:19.329Z,95.80
2018-07-30T01:39:47.801Z,95.90
2018-07-30T01:42:16.354Z,96.10
2018-07-30T01:44:44.837Z,96.20
2018-07-30T01:47:13.424Z,96.00
2018-07-30T01:49:41.912Z,96.40
2018-07-30T01:52:10.441Z,96.40
2018-07-30T01:54:38.981Z,96.70
2018-07-30T01:57:07.497Z,97.00
2018-07-30T01:59:35.977Z,97.50
2018-07-30T02:02:04.598Z,97.90
2018-07-30T02:04:33.094Z,98.20
2018-07-30T02:07:01.605Z,98.70
2018-07-30T02:09:30.090Z,99.20
2018-07-30T02:11:58.625Z,99.60
2018-07-30T02:14:27.154Z,99.90
2018-07-30T02:16:55.657Z,99.90
2018-07-30T02:19:24.210Z,99.90
2018-07-30T02:21:52.689Z,99.90
2018-07-30T02:26:49.489Z,99.80
2018-07-30T02:29:18.002Z,99.70
2018-07-30T02:31:46.587Z,99.90
2018-07-30T02:34:15.110Z,99.90
2018-07-30T02:36:43.680Z,99.90
2018-07-30T02:39:14.113Z,99.90
2018-07-30T02:41:43.085Z,99.90
2018-07-30T02:44:11.670Z,99.90
2018-07-30T02:46:40.503Z,99.90
2018-07-30T02:49:10.098Z,99.90
2018-07-30T02:51:38.612Z,99.90
2018-07-30T02:54:07.434Z,99.90
2018-07-30T02:56:36.002Z,99.90
2018-07-30T02:59:04.518Z,99.90
2018-07-30T03:01:33.028Z,99.90
2018-07-30T03:04:01.551Z,99.90
2018-07-30T03:06:30.070Z,99.90
2018-07-30T03:08:58.524Z,99.90
2018-07-30T03:11:27.068Z,99.90
2018-07-30T03:13:55.549Z,99.90
2018-07-30T03:16:24.116Z,99.90
2018-07-30T03:18:52.621Z,99.90
2018-07-30T03:21:21.148Z,99.90
2018-07-30T03:23:49.632Z,99.90
2018-07-30T03:26:18.124Z,99.90
2018-07-30T03:28:46.635Z,99.90
2018-07-30T03:31:15.200Z,99.90
2018-07-30T03:33:43.779Z,99.90
2018-07-30T03:36:12.326Z,99.90
2018-07-30T03:38:40.858Z,99.90
2018-07-30T03:41:09.386Z,99.90
2018-07-30T03:43:37.907Z,99.90
2018-07-30T03:46:06.878Z,99.90
2018-07-30T03:48:35.389Z,99.90
2018-07-30T03:51:03.935Z,99.90
2018-07-30T03:53:32.463Z,99.90
2018-07-30T03:56:00.953Z,99.90
2018-07-30T03:58:29.481Z,99.90
2018-07-30T04:00:57.996Z,99.90
2018-07-30T04:05:54.669Z,99.90
2018-07-30T04:08:23.193Z,99.90
2018-07-30T04:10:51.650Z,99.90
2018-07-30T04:13:20.174Z,99.90
2018-07-30T04:15:48.637Z,99.90
2018-07-30T04:18:17.169Z,99.90
2018-07-30T04:20:45.779Z,99.90
2018-07-30T04:23:14.309Z,99.90
2018-07-30T04:25:42.797Z,99.90
2018-07-30T04:28:11.297Z,99.90
2018-07-30T04:30:39.847Z,99.90
2018-07-30T04:33:08.342Z,99.90
2018-07-30T04:35:36.861Z,99.90
2018-07-30T04:38:05.574Z,99.90
2018-07-30T04:40:34.095Z,99.90
2018-07-30T04:43:02.569Z,99.90
2018-07-30T04:45:31.105Z,99.90
2018-07-30T04:48:00.131Z,99.90
2018-07-30T04:50:28.667Z,99.90
2018-07-30T04:52:57.593Z,99.90
2018-07-30T04:55:26.270Z,99.90
2018-07-30T04:57:54.789Z,99.90
2018-07-30T05:00:23.338Z,99.90
2018-07-30T05:02:51.869Z,99.90
2018-07-30T05:05:20.624Z,99.90
2018-07-30T05:07:49.265Z,99.90
2018-07-30T05:10:17.757Z,99.90
2018-07-30T05:12:46.297Z,99.90
2018-07-30T05:15:14.814Z,99.90
2018-07-30T05:17:43.450Z,99.70
2018-07-30T05:20:11.985Z,99.80
2018-07-30T05:25:08.741Z,99.90
2018-07-30T05:27:37.282Z,99.90
2018-07-30T05:30:06.018Z,99.50
2018-07-30T05:32:34.594Z,98.80
2018-07-30T05:35:03.117Z,98.50
2018-07-30T05:37:31.696Z,98.10
2018-07-30T05:40:00.239Z,97.50
2018-07-30T05:42:28.861Z,97.30
2018-07-30T05:44:57.397Z,96.70
2018-07-30T05:47:26.018Z,96.00
2018-07-30T05:49:54.566Z,95.00
2018-07-30T05:52:23.085Z,94.60
2018-07-30T05:54:51.833Z,94.50
2018-07-30T05:57:20.345Z,94.10
2018-07-30T05:59:49.044Z,94.20
2018-07-30T06:02:17.442Z,94.20
2018-07-30T06:04:46.031Z,93.40
2018-07-30T06:07:14.668Z,90.50
2018-07-30T06:09:43.724Z,82.90
2018-07-30T06:12:12.183Z,79.50
2018-07-30T06:14:40.902Z,78.60
2018-07-30T06:17:09.473Z,75.80
2018-07-30T06:19:37.985Z,74.30
2018-07-30T06:22:06.567Z,75.50
2018-07-30T06:24:35.202Z,76.80
2018-07-30T06:27:03.769Z,77.90
2018-07-30T06:29:32.278Z,78.60
2018-07-30T06:32:00.822Z,79.50
2018-07-30T06:34:29.345Z,79.80
2018-07-30T06:36:57.988Z,79.60
2018-07-30T06:39:26.481Z,76.60
2018-07-30T06:41:55.042Z,73.10
2018-07-30T06:44:23.578Z,66.60
2018-07-30T06:46:52.165Z,61.10
2018-07-30T06:49:20.685Z,56.40
2018-07-30T06:51:49.250Z,55.30
2018-07-30T06:54:17.831Z,56.20
2018-07-30T06:56:46.394Z,58.10
2018-07-30T06:59:14.921Z,60.50
2018-07-30T07:01:43.502Z,63.60
2018-07-30T07:04:12.065Z,65.70
2018-07-30T07:06:40.599Z,67.10
2018-07-30T07:09:10.277Z,67.50
2018-07-30T07:11:39.137Z,69.00
2018-07-30T07:14:07.987Z,69.50
2018-07-30T07:16:36.812Z,68.40
2018-07-30T07:19:05.347Z,68.60
2018-07-30T07:21:33.943Z,67.80
2018-07-30T07:24:02.794Z,67.70
2018-07-30T07:26:31.313Z,66.90
2018-07-30T07:28:59.893Z,65.10
2018-07-30T07:31:28.494Z,63.30
2018-07-30T07:33:57.125Z,60.80
2018-07-30T07:36:25.734Z,57.80
2018-07-30T07:38:54.340Z,57.20
2018-07-30T07:41:22.871Z,54.70
2018-07-30T07:43:51.416Z,52.00
2018-07-30T07:46:19.953Z,47.50
2018-07-30T07:48:48.481Z,47.00
2018-07-30T07:51:17.022Z,46.20
2018-07-30T07:53:45.516Z,47.30
2018-07-30T07:56:14.063Z,46.60
2018-07-30T07:58:42.569Z,47.60
2018-07-30T08:01:11.158Z,48.10
2018-07-30T08:03:39.658Z,47.50
2018-07-30T08:06:08.528Z,47.70
2018-07-30T08:08:37.004Z,47.30
2018-07-30T08:11:05.635Z,47.00
2018-07-30T08:13:34.233Z,46.40
2018-07-30T08:16:02.841Z,47.50
2018-07-30T08:18:31.329Z,46.50
2018-07-30T08:20:59.910Z,46.50
2018-07-30T08:23:28.429Z,47.10
2018-07-30T08:25:56.972Z,46.80
2018-07-30T08:28:25.785Z,47.30
2018-07-30T08:30:54.431Z,45.30
2018-07-30T08:33:22.981Z,45.40
2018-07-30T08:35:51.513Z,45.70
2018-07-30T08:38:20.063Z,45.70
2018-07-30T08:40:48.669Z,47.10
2018-07-30T08:43:17.189Z,47.10
2018-07-30T08:45:45.733Z,47.60
2018-07-30T08:48:14.283Z,47.00
2018-07-30T08:50:42.758Z,46.00
2018-07-30T08:53:12.185Z,46.30
2018-07-30T08:55:40.715Z,46.70
2018-07-30T08:58:10.324Z,46.20
2018-07-30T09:00:38.873Z,46.80
2018-07-30T09:03:07.490Z,43.60
2018-07-30T09:05:36.133Z,44.40
2018-07-30T09:08:05.073Z,43.90
2018-07-30T09:10:33.591Z,42.10
2018-07-30T09:13:02.090Z,41.10
2018-07-30T09:15:30.610Z,39.70
2018-07-30T09:17:59.174Z,40.40
2018-07-30T09:20:27.670Z,40.10
2018-07-30T09:22:56.225Z,38.00
2018-07-30T09:25:24.750Z,35.90
2018-07-30T09:27:53.297Z,35.20
2018-07-30T09:30:21.814Z,31.30
2018-07-30T09:32:50.517Z,33.10
2018-07-30T09:35:19.073Z,32.70
2018-07-30T09:37:47.713Z,33.50
2018-07-30T09:40:16.393Z,34.90
2018-07-30T09:47:41.370Z,36.30
2018-07-30T09:52:38.109Z,37.20
2018-07-30T09:55:06.741Z,37.20
2018-07-30T09:57:35.242Z,37.50
2018-07-30T10:00:03.944Z,35.30
2018-07-30T10:02:32.445Z,34.60
2018-07-30T10:05:01.025Z,33.90
2018-07-30T10:09:57.750Z,31.40
2018-07-30T10:12:26.315Z,31.10
2018-07-30T10:14:54.864Z,31.10
2018-07-30T10:17:23.430Z,31.60
2018-07-30T10:19:51.973Z,31.80
2018-07-30T10:22:20.541Z,32.70
2018-07-30T10:24:49.066Z,32.10
2018-07-30T10:27:17.619Z,32.30
2018-07-30T10:29:46.133Z,33.00
2018-07-30T10:32:14.813Z,32.20
2018-07-30T10:34:43.325Z,32.00
2018-07-30T10:37:11.905Z,32.20
2018-07-30T10:39:40.394Z,32.80
2018-07-30T10:42:08.998Z,33.20
2018-07-30T10:44:37.496Z,33.90
2018-07-30T10:47:06.302Z,32.60
2018-07-30T10:49:34.806Z,33.00
2018-07-30T10:52:03.451Z,33.10
2018-07-30T10:54:31.950Z,33.50
2018-07-30T10:57:00.484Z,33.00
2018-07-30T10:59:29.005Z,33.20
2018-07-30T11:01:57.526Z,32.40
2018-07-30T11:04:26.188Z,32.70
2018-07-30T11:06:54.723Z,34.60
2018-07-30T11:09:23.644Z,34.20
2018-07-30T11:11:52.857Z,35.10
2018-07-30T11:14:21.373Z,36.10
2018-07-30T11:16:49.885Z,37.70
2018-07-30T11:19:18.409Z,37.10
2018-07-30T11:21:46.913Z,36.80
2018-07-30T11:24:15.441Z,38.00
2018-07-30T11:26:43.929Z,37.50
2018-07-30T11:29:12.446Z,38.30
2018-07-30T11:31:41.000Z,38.50
2018-07-30T11:34:09.537Z,38.30
2018-07-30T11:36:38.098Z,38.10
2018-07-30T11:39:10.196Z,36.80
2018-07-30T11:41:38.740Z,37.60
2018-07-30T11:44:07.337Z,37.00
2018-07-30T11:46:35.814Z,37.40
2018-07-30T11:49:04.382Z,38.20
2018-07-30T11:51:32.885Z,38.50
2018-07-30T11:54:01.828Z,38.60
2018-07-30T11:56:30.349Z,39.00
2018-07-30T11:58:58.941Z,38.10
2018-07-30T12:01:27.597Z,39.50
2018-07-30T12:03:56.078Z,38.90
2018-07-30T12:06:24.651Z,38.20
2018-07-30T12:08:53.241Z,37.80
2018-07-30T12:11:21.710Z,37.70
2018-07-30T12:13:50.293Z,37.70
2018-07-30T12:16:18.830Z,38.30
2018-07-30T12:18:47.413Z,38.20
2018-07-30T12:21:16.035Z,38.20
2018-07-30T12:23:44.537Z,37.40
2018-07-30T12:26:13.073Z,38.20
2018-07-30T12:28:41.573Z,37.80
2018-07-30T12:31:10.116Z,37.40
2018-07-30T12:33:38.637Z,36.50
2018-07-30T12:36:07.215Z,36.70
2018-07-30T12:38:35.783Z,37.50
2018-07-30T12:41:04.297Z,37.10
2018-07-30T12:43:32.793Z,37.20
2018-07-30T12:46:01.325Z,37.00
2018-07-30T12:48:29.833Z,37.10
2018-07-30T12:50:58.385Z,37.40
2018-07-30T12:53:26.917Z,36.00
2018-07-30T12:55:55.423Z,36.20
2018-07-30T12:58:23.993Z,36.40
2018-07-30T13:00:52.566Z,36.20
2018-07-30T13:03:21.044Z,36.90
2018-07-30T13:05:49.637Z,37.40
2018-07-30T13:08:18.256Z,38.20
2018-07-30T13:10:46.761Z,39.00
2018-07-30T13:13:15.291Z,39.10
2018-07-30T13:15:43.793Z,39.80
2018-07-30T13:18:12.384Z,39.50
2018-07-30T13:20:40.846Z,38.90
2018-07-30T13:23:09.385Z,38.50
2018-07-30T13:25:38.286Z,39.10
2018-07-30T13:28:06.870Z,38.10
2018-07-30T13:30:35.371Z,38.70
2018-07-30T13:33:03.866Z,37.40
2018-07-30T13:35:32.422Z,36.90
2018-07-30T13:38:00.983Z,36.40
2018-07-30T13:40:29.493Z,36.50
2018-07-30T13:42:58.057Z,36.80
2018-07-30T13:45:26.635Z,37.20
2018-07-30T13:47:55.133Z,37.40
2018-07-30T13:50:23.627Z,37.10
2018-07-30T13:52:52.104Z,36.50
2018-07-30T13:55:20.662Z,36.30
2018-07-30T13:57:49.151Z,35.90
2018-07-30T14:00:17.723Z,35.60
2018-07-30T14:02:46.255Z,35.20
2018-07-30T14:07:42.990Z,36.80
2018-07-30T14:10:11.504Z,37.40
2018-07-30T14:12:40.058Z,37.20
2018-07-30T14:15:09.334Z,36.70
2018-07-30T14:17:37.881Z,36.70
2018-07-30T14:20:07.893Z,36.40
2018-07-30T14:22:36.507Z,36.20
2018-07-30T14:25:05.369Z,35.70
2018-07-30T14:27:34.005Z,36.10
2018-07-30T14:30:02.618Z,35.90
2018-07-30T14:32:31.145Z,36.10
2018-07-30T14:34:59.625Z,36.70
2018-07-30T14:37:28.240Z,36.50
2018-07-30T14:39:56.787Z,36.70
2018-07-30T14:42:25.370Z,37.10
2018-07-30T14:44:53.875Z,36.70
2018-07-30T14:47:22.373Z,36.20
2018-07-30T14:49:50.902Z,37.10
2018-07-30T14:52:19.394Z,37.00
2018-07-30T14:54:47.942Z,36.80
2018-07-30T14:57:16.434Z,36.90
2018-07-30T14:59:45.032Z,37.20
2018-07-30T15:02:13.479Z,37.60
2018-07-30T15:04:42.023Z,37.40
2018-07-30T15:07:10.581Z,36.40
2018-07-30T15:09:39.121Z,37.00
2018-07-30T15:12:07.683Z,36.50
2018-07-30T15:14:36.272Z,36.50
2018-07-30T15:17:04.758Z,37.80
2018-07-30T15:19:33.388Z,37.90
2018-07-30T15:22:01.870Z,37.20
2018-07-30T15:24:30.495Z,37.20
2018-07-30T15:26:59.017Z,36.80
2018-07-30T15:29:27.659Z,36.10
2018-07-30T15:31:56.148Z,35.50
2018-07-30T15:36:52.917Z,35.10
2018-07-30T15:39:21.538Z,35.00
2018-07-30T15:41:50.104Z,36.10
2018-07-30T15:44:18.685Z,35.70
2018-07-30T15:46:48.330Z,35.50
2018-07-30T15:49:16.987Z,36.40
2018-07-30T15:51:45.513Z,35.50
2018-07-30T15:54:14.155Z,34.70
2018-07-30T15:56:42.757Z,34.40
2018-07-30T15:59:11.317Z,34.80
2018-07-30T16:04:08.081Z,34.50
2018-07-30T16:06:36.577Z,33.30
2018-07-30T16:09:07.094Z,33.40
2018-07-30T16:11:35.704Z,32.80
2018-07-30T16:14:04.381Z,32.70
2018-07-30T16:16:32.980Z,33.40
2018-07-30T16:19:01.526Z,33.40
2018-07-30T16:21:30.069Z,32.60
2018-07-30T16:23:58.559Z,32.60
2018-07-30T16:26:27.110Z,33.70
2018-07-30T16:28:55.646Z,33.30
2018-07-30T16:31:24.241Z,32.90
2018-07-30T16:33:52.881Z,31.70
2018-07-30T16:36:21.523Z,30.90
2018-07-30T16:38:50.048Z,30.50
2018-07-30T16:41:18.574Z,30.70
2018-07-30T16:43:47.221Z,31.00
2018-07-30T16:46:15.720Z,31.00
2018-07-30T16:48:44.360Z,31.00
2018-07-30T16:51:12.983Z,31.40
2018-07-30T16:53:41.652Z,31.90
2018-07-30T16:56:10.197Z,32.40
2018-07-30T16:58:38.770Z,32.50
2018-07-30T17:01:07.542Z,32.20
2018-07-30T17:03:36.478Z,32.30
2018-07-30T17:06:05.262Z,32.40
2018-07-30T17:08:34.093Z,32.70
2018-07-30T17:11:02.680Z,33.80
2018-07-30T17:13:32.453Z,34.70
2018-07-30T17:16:01.197Z,35.60
2018-07-30T17:18:30.647Z,35.90
2018-07-30T17:20:59.445Z,36.30
2018-07-30T17:23:28.809Z,36.10
2018-07-30T17:25:59.053Z,36.10
2018-07-30T17:28:27.527Z,36.20
2018-07-30T17:30:56.106Z,36.60
2018-07-30T17:33:24.738Z,37.10
2018-07-30T17:35:53.284Z,37.00
2018-07-30T17:38:21.821Z,37.40
2018-07-30T17:40:50.414Z,38.00
2018-07-30T17:43:18.950Z,37.70
2018-07-30T17:45:47.508Z,38.40
2018-07-30T17:48:16.584Z,38.70
2018-07-30T17:50:45.234Z,38.50
2018-07-30T17:53:13.928Z,38.70
2018-07-30T17:55:42.670Z,39.00
2018-07-30T17:58:11.233Z,39.10
2018-07-30T18:00:39.792Z,39.30
2018-07-30T18:03:08.393Z,39.50
2018-07-30T18:05:37.323Z,40.20
2018-07-30T18:08:05.955Z,39.50
2018-07-30T18:10:34.520Z,39.90
2018-07-30T18:13:03.054Z,40.60
2018-07-30T18:15:31.772Z,40.40
2018-07-30T18:18:00.279Z,40.80
2018-07-30T18:20:28.853Z,40.70
2018-07-30T18:22:57.357Z,41.40
2018-07-30T18:25:26.557Z,41.70
2018-07-30T18:27:55.161Z,42.00
2018-07-30T18:30:23.662Z,42.10
2018-07-30T18:32:52.259Z,42.50
2018-07-30T18:35:20.789Z,42.70
2018-07-30T18:37:49.594Z,43.20
2018-07-30T18:40:18.153Z,43.50
2018-07-30T18:42:46.677Z,43.70
2018-07-30T18:45:16.042Z,43.80
2018-07-30T18:47:45.289Z,44.30
2018-07-30T18:50:13.849Z,44.70
2018-07-30T18:52:42.405Z,44.90
2018-07-30T18:55:10.971Z,45.50
2018-07-30T18:57:39.749Z,46.20
2018-07-30T19:00:08.276Z,46.10
2018-07-30T19:02:37.137Z,46.40
2018-07-30T19:05:06.031Z,46.70
2018-07-30T19:07:34.675Z,47.10
2018-07-30T19:10:03.584Z,47.70
2018-07-30T19:12:32.154Z,47.90
2018-07-30T19:15:00.711Z,48.30
2018-07-30T19:17:29.205Z,49.10
2018-07-30T19:19:58.121Z,49.40
2018-07-30T19:22:26.622Z,50.10
2018-07-30T19:24:55.118Z,50.50
2018-07-30T19:27:23.665Z,50.70
2018-07-30T19:29:52.167Z,51.20
2018-07-30T19:32:20.747Z,51.60
2018-07-30T19:34:49.413Z,52.10
2018-07-30T19:37:17.968Z,52.40
2018-07-30T19:39:46.461Z,52.70
2018-07-30T19:42:14.999Z,53.00
2018-07-30T19:44:43.562Z,53.80
2018-07-30T19:47:12.305Z,54.10
2018-07-30T19:49:40.840Z,54.60
2018-07-30T19:52:09.365Z,55.20
2018-07-30T19:54:37.893Z,55.50
2018-07-30T19:57:06.517Z,56.20
2018-07-30T19:59:35.066Z,56.30
2018-07-30T20:02:03.657Z,56.60
2018-07-30T20:04:32.493Z,57.10
2018-07-30T20:07:01.137Z,57.50
2018-07-30T20:09:29.645Z,58.00
2018-07-30T20:11:58.169Z,58.30
2018-07-30T20:14:26.692Z,58.50
2018-07-30T20:16:55.200Z,58.60
2018-07-30T20:19:23.865Z,58.80
2018-07-30T20:21:52.354Z,59.10
2018-07-30T20:24:20.885Z,59.10
2018-07-30T20:26:49.421Z,59.40
2018-07-30T20:29:17.936Z,59.60
2018-07-30T20:31:46.441Z,59.90
2018-07-30T20:34:14.990Z,60.20
2018-07-30T20:36:43.478Z,60.30
2018-07-30T20:39:12.098Z,60.60
2018-07-30T20:41:40.575Z,61.00
2018-07-30T20:44:09.105Z,61.60
2018-07-30T20:46:37.657Z,61.80
2018-07-30T20:49:06.275Z,62.30
2018-07-30T20:51:34.801Z,62.80
2018-07-30T20:54:03.386Z,63.20
2018-07-30T20:56:32.458Z,63.70
2018-07-30T20:59:01.406Z,63.90
2018-07-30T21:01:30.169Z,64.10
2018-07-30T21:03:58.968Z,64.20
2018-07-30T21:06:27.989Z,64.50
2018-07-30T21:08:56.870Z,64.60
2018-07-30T21:11:25.654Z,65.10
2018-07-30T21:13:54.496Z,65.30
2018-07-30T21:16:22.985Z,65.60
2018-07-30T21:18:52.726Z,65.10
2018-07-30T21:21:21.468Z,66.20
2018-07-30T21:23:50.255Z,66.40
2018-07-30T21:26:18.971Z,66.70
2018-07-30T21:28:47.947Z,66.90
2018-07-30T21:31:16.837Z,66.90
2018-07-30T21:33:45.519Z,67.60
2018-07-30T21:36:14.284Z,68.80
2018-07-30T21:38:43.105Z,68.70
2018-07-30T21:41:11.910Z,69.00
2018-07-30T21:43:40.450Z,69.20
2018-07-30T21:48:37.772Z,70.10
2018-07-30T21:51:06.558Z,70.90
2018-07-30T21:53:35.852Z,71.60
2018-07-30T21:56:04.705Z,72.40
2018-07-30T21:58:33.556Z,73.20
2018-07-30T22:01:02.488Z,74.20
2018-07-30T22:03:31.365Z,74.80
2018-07-30T22:06:01.121Z,75.40
2018-07-30T22:08:30.232Z,76.30
2018-07-30T22:10:59.218Z,78.00
2018-07-30T22:13:28.101Z,79.10
2018-07-30T22:15:56.901Z,80.10
2018-07-30T22:18:25.794Z,81.20
2018-07-30T22:20:54.434Z,82.60
2018-07-30T22:23:23.057Z,83.80
2018-07-30T22:25:51.845Z,85.10
2018-07-30T22:28:20.540Z,86.00
2018-07-30T22:30:49.283Z,87.20
2018-07-30T22:33:18.034Z,89.40
2018-07-30T22:35:46.622Z,90.80
2018-07-30T22:38:16.301Z,91.50
2018-07-30T22:40:44.841Z,92.30
2018-07-30T22:43:13.429Z,93.00
2018-07-30T22:45:41.906Z,93.60
2018-07-30T22:48:10.513Z,94.30
2018-07-30T22:50:38.989Z,94.70
2018-07-30T22:53:07.530Z,95.20
2018-07-30T22:55:36.101Z,95.60
2018-07-30T22:58:04.646Z,96.50
2018-07-30T23:00:33.210Z,96.90
2018-07-30T23:03:01.737Z,97.20
2018-07-30T23:05:30.287Z,97.50
2018-07-30T23:07:59.768Z,98.40
2018-07-30T23:10:28.341Z,99.10
2018-07-30T23:12:56.907Z,99.60
2018-07-30T23:15:25.471Z,99.90
2018-07-30T23:17:53.968Z,99.90
2018-07-30T23:20:22.485Z,99.90
2018-07-30T23:25:19.280Z,99.90
2018-07-30T23:27:47.818Z,99.90
2018-07-30T23:30:16.314Z,99.90
2018-07-30T23:32:44.838Z,99.90
2018-07-30T23:35:13.405Z,99.90
2018-07-30T23:37:41.990Z,99.90
2018-07-30T23:40:10.544Z,99.90
2018-07-30T23:42:39.143Z,99.90
2018-07-30T23:45:07.699Z,99.90
2018-07-30T23:47:36.216Z,99.90
2018-07-30T23:50:04.749Z,99.90
2018-07-30T23:52:33.267Z,99.90
2018-07-30T23:55:01.917Z,99.90
2018-07-30T23:57:30.358Z,99.90
2018-07-30T23:59:58.917Z,99.90
